Terminal Aerodrome Forecast
Issued by NWS Melbourne, FL

Current Version | Previous Version | Text Only | Print | Product List | Glossary On
Versions: 1 2 3 4 5 6 7 8 9 10 11 12 13 14 15 16 17 18 19 20 21 22 23 24 25
000
FTUS42 KMLB 290538
TAFMCO
TAF
KMCO 290538Z 2906/3006 VRB03KT P6SM FEW090 SCT300
     FM291500 30005KT P6SM FEW050 SCT250
     FM292100 08008KT P6SM BKN070
     FM300100 11006KT P6SM FEW080 SCT250=

USA.gov is the U.S. government's official web portal to all federal, state and local government web resources and services.